createdAt,value
2022-12-23T00:03:04.703Z,11.00
2022-12-23T00:07:16.334Z,11.35
2022-12-23T00:11:28.760Z,11.97
2022-12-23T00:15:40.326Z,12.80
2022-12-23T00:19:51.830Z,12.07
2022-12-23T00:24:03.523Z,13.13
2022-12-23T00:28:17.457Z,13.23
2022-12-23T00:32:29.031Z,12.77
2022-12-23T00:36:40.871Z,13.32
2022-12-23T00:41:27.796Z,14.07
2022-12-23T00:45:39.375Z,14.48
2022-12-23T00:49:50.954Z,14.02
2022-12-23T00:54:03.176Z,13.80
2022-12-23T00:58:17.152Z,14.38
2022-12-23T01:02:47.440Z,15.02
2022-12-23T01:06:59.144Z,14.50
2022-12-23T01:11:12.008Z,14.88
2022-12-23T01:15:24.001Z,12.82
2022-12-23T01:19:35.679Z,13.20
2022-12-23T01:23:47.404Z,12.57
2022-12-23T01:27:59.062Z,13.00
2022-12-23T01:32:10.927Z,13.25
2022-12-23T01:36:23.404Z,12.77
2022-12-23T01:40:37.111Z,12.13
2022-12-23T01:45:00.655Z,11.45
2022-12-23T01:49:12.314Z,9.68
2022-12-23T01:53:38.835Z,9.37
2022-12-23T01:57:52.807Z,11.02
2022-12-23T02:02:23.140Z,12.15
2022-12-23T02:06:56.391Z,10.00
2022-12-23T02:11:55.499Z,11.80
2022-12-23T02:16:17.135Z,11.05
2022-12-23T02:20:49.802Z,12.05
2022-12-23T02:25:13.319Z,11.07
2022-12-23T02:29:43.713Z,11.73
2022-12-23T02:34:07.783Z,12.13
2022-12-23T02:38:31.554Z,12.97
2022-12-23T02:43:00.261Z,13.63
2022-12-23T02:47:21.296Z,12.57
2022-12-23T02:51:37.986Z,12.40
2022-12-23T02:55:52.621Z,18.35
2022-12-23T03:00:06.516Z,13.93
2022-12-23T03:04:18.216Z,13.30
2022-12-23T03:08:34.803Z,13.15
2022-12-23T03:13:04.052Z,12.55
2022-12-23T03:17:33.204Z,12.73
2022-12-23T03:22:10.641Z,12.57
2022-12-23T03:26:40.510Z,11.57
2022-12-23T03:30:57.452Z,11.75
2022-12-23T03:35:11.155Z,12.30
2022-12-23T03:39:28.816Z,9.10
2022-12-23T03:43:50.361Z,9.57
2022-12-23T03:48:10.067Z,8.48
2022-12-23T03:52:30.742Z,7.97
2022-12-23T03:56:48.000Z,8.30
2022-12-23T04:01:11.404Z,8.53
2022-12-23T04:05:34.907Z,7.78
2022-12-23T04:09:48.155Z,8.13
2022-12-23T04:13:59.781Z,7.43
2022-12-23T04:18:17.514Z,7.37
2022-12-23T04:22:29.128Z,6.57
2022-12-23T04:26:40.682Z,6.40
2022-12-23T04:30:52.299Z,5.97
2022-12-23T04:35:04.644Z,6.23
2022-12-23T04:39:16.250Z,6.57
2022-12-23T04:43:27.921Z,6.53
2022-12-23T04:47:40.671Z,6.78
2022-12-23T04:51:52.676Z,6.33
2022-12-23T04:56:04.571Z,6.97
2022-12-23T05:00:16.577Z,6.83
2022-12-23T05:04:28.265Z,6.73
2022-12-23T05:08:40.042Z,8.30
2022-12-23T05:12:51.644Z,6.83
2022-12-23T05:17:07.451Z,7.38
2022-12-23T05:21:19.636Z,6.75
2022-12-23T05:25:33.840Z,7.50
2022-12-23T05:29:45.497Z,7.17
2022-12-23T05:34:02.330Z,8.10
2022-12-23T05:38:18.133Z,7.75
2022-12-23T05:42:29.755Z,8.20
2022-12-23T05:46:41.425Z,7.70
2022-12-23T05:50:53.603Z,8.13
2022-12-23T05:55:05.870Z,8.53
2022-12-23T05:59:17.476Z,10.17
2022-12-23T06:03:29.466Z,10.30
2022-12-23T06:07:42.020Z,9.67
2022-12-23T06:11:53.591Z,9.85
2022-12-23T06:16:05.724Z,8.95
2022-12-23T06:20:20.734Z,9.30
2022-12-23T06:24:32.783Z,9.48
2022-12-23T06:28:44.347Z,9.27
2022-12-23T06:32:55.933Z,9.43
2022-12-23T06:37:07.670Z,9.80
2022-12-23T06:41:19.188Z,9.07
2022-12-23T06:45:30.806Z,9.27
2022-12-23T06:49:42.539Z,8.93
2022-12-23T06:53:54.285Z,8.30
2022-12-23T06:58:06.094Z,9.10
2022-12-23T07:02:17.771Z,9.23
2022-12-23T07:06:29.585Z,8.87
2022-12-23T07:10:41.418Z,10.32
2022-12-23T07:14:52.974Z,10.20
2022-12-23T07:19:04.791Z,8.07
2022-12-23T07:23:16.822Z,9.35
2022-12-23T07:27:28.366Z,9.73
2022-12-23T07:31:41.313Z,10.25
2022-12-23T07:35:58.682Z,9.60
2022-12-23T07:40:10.994Z,9.37
2022-12-23T07:44:22.593Z,17.52
2022-12-23T07:48:34.128Z,11.68
2022-12-23T07:52:45.943Z,13.43
2022-12-23T07:56:58.135Z,13.63
2022-12-23T08:01:09.831Z,15.30
2022-12-23T08:05:21.866Z,14.60
2022-12-23T08:09:33.563Z,13.52
2022-12-23T08:13:46.102Z,16.67
2022-12-23T08:17:57.706Z,11.43
2022-12-23T08:22:09.241Z,10.80
2022-12-23T08:26:23.503Z,10.93
2022-12-23T08:30:35.219Z,10.57
2022-12-23T08:34:46.884Z,10.03
2022-12-23T08:39:01.215Z,9.63
2022-12-23T08:43:12.860Z,10.87
2022-12-23T08:47:24.552Z,9.27
2022-12-23T08:51:37.914Z,9.60
2022-12-23T08:55:49.619Z,10.95
2022-12-23T09:00:01.245Z,10.33
2022-12-23T09:04:14.159Z,10.50
2022-12-23T09:08:25.939Z,10.68
2022-12-23T09:12:37.608Z,9.43
2022-12-23T09:16:52.607Z,11.13
2022-12-23T09:21:07.079Z,9.93
2022-12-23T09:25:18.716Z,10.10
2022-12-23T09:29:30.317Z,9.77
2022-12-23T09:33:42.355Z,9.98
2022-12-23T09:37:53.889Z,11.47
2022-12-23T09:42:25.310Z,10.75
2022-12-23T09:46:45.206Z,11.32
2022-12-23T09:50:57.104Z,12.13
2022-12-23T09:55:12.103Z,13.05
2022-12-23T10:00:02.100Z,12.80
2022-12-23T10:04:22.913Z,11.80
2022-12-23T10:08:39.556Z,13.53
2022-12-23T10:12:53.729Z,21.13
2022-12-23T10:17:14.611Z,12.80
2022-12-23T10:21:47.268Z,13.23
2022-12-23T10:26:03.669Z,14.20
2022-12-23T10:35:06.863Z,14.87
2022-12-23T10:39:51.309Z,14.90
2022-12-23T10:44:23.138Z,18.10
2022-12-23T10:48:46.862Z,18.27
2022-12-23T10:53:03.119Z,18.27
2022-12-23T10:57:17.342Z,18.65
2022-12-23T11:01:31.258Z,17.77
2022-12-23T11:05:44.490Z,17.53
2022-12-23T11:10:04.057Z,18.08
2022-12-23T11:14:36.833Z,18.42
2022-12-23T11:18:58.584Z,17.57
2022-12-23T11:23:31.210Z,20.13
2022-12-23T11:27:44.797Z,21.48
2022-12-23T11:31:56.619Z,21.50
2022-12-23T11:36:17.574Z,22.35
2022-12-23T11:40:36.019Z,25.02
2022-12-23T11:44:51.639Z,26.38
2022-12-23T11:49:33.679Z,26.00
2022-12-23T11:53:45.256Z,23.73
2022-12-23T11:57:57.112Z,23.23
2022-12-23T12:02:44.471Z,22.05
2022-12-23T12:06:57.240Z,21.17
2022-12-23T12:11:16.588Z,21.27
2022-12-23T12:15:34.165Z,20.83
2022-12-23T12:19:45.823Z,19.77
2022-12-23T12:24:20.048Z,17.73
2022-12-23T12:28:40.065Z,19.75
2022-12-23T12:32:59.387Z,19.15
2022-12-23T12:37:36.837Z,18.05
2022-12-23T12:41:58.497Z,17.85
2022-12-23T12:46:31.311Z,18.33
2022-12-23T12:50:56.804Z,22.53
2022-12-23T12:55:40.199Z,20.23
2022-12-23T13:00:01.621Z,18.77
2022-12-23T13:04:48.488Z,18.98
2022-12-23T13:09:19.342Z,20.00
2022-12-23T13:13:43.261Z,18.08
2022-12-23T13:18:04.067Z,17.03
2022-12-23T13:22:24.662Z,14.57
2022-12-23T13:26:39.668Z,14.70
2022-12-23T13:31:03.030Z,13.10
2022-12-23T13:35:18.807Z,14.25
2022-12-23T13:40:00.889Z,14.15
2022-12-23T13:44:15.041Z,13.35
2022-12-23T13:49:06.158Z,14.70
2022-12-23T13:53:37.669Z,15.10
2022-12-23T13:58:11.584Z,14.20
2022-12-23T14:02:35.411Z,14.10
2022-12-23T14:06:48.367Z,13.57
2022-12-23T14:11:19.884Z,15.10
2022-12-23T14:15:31.454Z,14.30
2022-12-23T14:19:49.134Z,13.80
2022-12-23T14:24:22.547Z,15.07
2022-12-23T14:28:48.602Z,14.43
2022-12-23T14:33:04.080Z,13.32
2022-12-23T14:37:24.567Z,16.80
2022-12-23T14:41:39.478Z,14.13
2022-12-23T14:45:56.604Z,13.65
2022-12-23T14:50:33.810Z,11.83
2022-12-23T14:55:06.078Z,11.97
2022-12-23T14:59:42.768Z,12.77
2022-12-23T15:04:01.629Z,12.90
2022-12-23T15:08:28.949Z,12.20
2022-12-23T15:12:43.613Z,11.83
2022-12-23T15:16:55.288Z,16.83
2022-12-23T15:21:13.258Z,11.73
2022-12-23T15:25:27.876Z,11.50
2022-12-23T15:29:46.743Z,12.97
2022-12-23T15:34:03.510Z,11.60
2022-12-23T15:38:18.130Z,10.60
2022-12-23T15:42:38.454Z,11.00
2022-12-23T15:46:51.333Z,12.70
2022-12-23T15:51:08.666Z,14.45
2022-12-23T15:55:25.128Z,12.20
2022-12-23T15:59:38.626Z,11.63
2022-12-23T16:03:56.896Z,12.23
2022-12-23T16:08:19.376Z,11.50
2022-12-23T16:12:34.894Z,11.17
2022-12-23T16:16:46.560Z,11.87
2022-12-23T16:21:04.024Z,11.93
2022-12-23T16:25:20.605Z,12.10
2022-12-23T16:29:33.583Z,12.43
2022-12-23T16:33:51.856Z,13.73
2022-12-23T16:38:14.379Z,13.00
2022-12-23T16:42:38.291Z,12.93
2022-12-23T16:46:51.639Z,13.97
2022-12-23T16:51:07.486Z,14.43
2022-12-23T16:55:20.317Z,17.07
2022-12-23T16:59:31.879Z,15.43
2022-12-23T17:03:43.607Z,18.47
2022-12-23T17:07:55.249Z,18.47
2022-12-23T17:12:07.030Z,16.60
2022-12-23T17:16:20.685Z,18.30
2022-12-23T17:20:32.295Z,15.60
2022-12-23T17:24:44.092Z,16.43
2022-12-23T17:28:55.713Z,17.67
2022-12-23T17:33:18.463Z,15.57
2022-12-23T17:37:31.482Z,16.27
2022-12-23T17:41:43.056Z,16.20
2022-12-23T17:45:54.840Z,13.57
2022-12-23T17:50:07.303Z,15.00
2022-12-23T17:54:23.260Z,12.97
2022-12-23T17:58:34.890Z,13.15
2022-12-23T18:02:47.133Z,14.25
2022-12-23T18:06:58.765Z,17.07
2022-12-23T18:11:21.279Z,15.73
2022-12-23T18:15:44.568Z,11.88
2022-12-23T18:19:56.141Z,12.02
2022-12-23T18:24:10.084Z,8.60
2022-12-23T18:28:22.377Z,7.80
2022-12-23T18:32:34.082Z,6.97
2022-12-23T18:36:46.291Z,7.70
2022-12-23T18:40:58.170Z,6.75
2022-12-23T18:45:24.971Z,7.90
2022-12-23T18:49:37.137Z,7.85
2022-12-23T18:53:49.078Z,7.85
2022-12-23T18:58:01.141Z,8.15
2022-12-23T19:02:15.229Z,7.55
2022-12-23T19:06:26.934Z,7.72
2022-12-23T19:10:38.591Z,7.43
2022-12-23T19:14:50.257Z,7.18
2022-12-23T19:19:01.858Z,8.27
2022-12-23T19:23:14.378Z,6.78
2022-12-23T19:27:26.039Z,8.18
2022-12-23T19:31:41.024Z,6.22
2022-12-23T19:35:52.541Z,6.63
2022-12-23T19:40:05.377Z,7.53
2022-12-23T19:44:17.039Z,7.03
2022-12-23T19:48:29.430Z,6.57
2022-12-23T19:52:41.086Z,7.55
2022-12-23T19:56:52.927Z,6.03
2022-12-23T20:01:12.812Z,6.45
2022-12-23T20:05:24.459Z,6.40
2022-12-23T20:09:36.507Z,6.28
2022-12-23T20:13:55.350Z,6.22
2022-12-23T20:18:06.970Z,5.63
2022-12-23T20:22:18.592Z,5.72
2022-12-23T20:26:30.153Z,6.85
2022-12-23T20:30:42.440Z,6.65
2022-12-23T20:34:53.999Z,6.30
2022-12-23T20:39:06.125Z,5.90
2022-12-23T20:43:17.677Z,6.20
2022-12-23T20:47:29.251Z,5.63
2022-12-23T20:51:40.882Z,5.10
2022-12-23T20:55:52.472Z,4.35
2022-12-23T21:00:05.500Z,4.10
2022-12-23T21:04:17.861Z,4.43
2022-12-23T21:08:29.488Z,4.68
2022-12-23T21:12:43.120Z,4.55
2022-12-23T21:16:55.524Z,4.60
2022-12-23T21:21:07.252Z,5.85
2022-12-23T21:25:18.848Z,5.57
2022-12-23T21:29:30.484Z,5.53
2022-12-23T21:33:44.700Z,5.95
2022-12-23T21:37:56.279Z,5.47
2022-12-23T21:42:07.908Z,5.65
2022-12-23T21:46:21.654Z,5.13
2022-12-23T21:50:33.272Z,4.60
2022-12-23T21:54:44.795Z,4.47
2022-12-23T21:58:57.893Z,4.40
2022-12-23T22:03:09.474Z,4.78
2022-12-23T22:07:21.051Z,4.67
2022-12-23T22:11:35.283Z,4.70
2022-12-23T22:15:46.794Z,4.47
2022-12-23T22:19:58.363Z,4.73
2022-12-23T22:24:10.488Z,4.47
2022-12-23T22:28:22.423Z,4.90
2022-12-23T22:32:36.613Z,4.60
2022-12-23T22:36:52.421Z,4.80
2022-12-23T22:41:04.172Z,4.83
2022-12-23T22:45:15.891Z,4.90
2022-12-23T22:49:27.765Z,5.03
2022-12-23T22:53:39.351Z,4.23
2022-12-23T22:57:50.909Z,4.07
2022-12-23T23:02:02.690Z,4.05
2022-12-23T23:06:14.444Z,4.40
2022-12-23T23:10:26.089Z,3.77
2022-12-23T23:14:52.802Z,4.50
2022-12-23T23:19:05.129Z,4.50
2022-12-23T23:23:16.977Z,3.47
2022-12-23T23:27:28.593Z,4.60
2022-12-23T23:31:42.488Z,4.47
2022-12-23T23:35:56.491Z,4.57
2022-12-23T23:40:08.727Z,5.33
2022-12-23T23:44:20.607Z,5.13
2022-12-23T23:48:32.120Z,5.50
2022-12-23T23:52:43.630Z,4.55
2022-12-23T23:56:55.114Z,4.73
